createdAt,value
2017-07-12T00:00:17.261Z,0
2017-07-12T00:01:17.301Z,0
2017-07-12T00:02:17.343Z,0
2017-07-12T00:03:17.382Z,0
2017-07-12T00:04:17.416Z,0
2017-07-12T00:05:17.462Z,0
2017-07-12T00:06:17.503Z,0
2017-07-12T00:07:17.538Z,0
2017-07-12T00:08:17.576Z,0
2017-07-12T00:09:17.605Z,0
2017-07-12T00:10:17.659Z,0
2017-07-12T00:11:17.693Z,0
2017-07-12T00:12:17.724Z,0
2017-07-12T00:13:18.084Z,0
2017-07-12T00:14:18.142Z,0
2017-07-12T00:15:17.869Z,0
2017-07-12T00:16:17.882Z,0
2017-07-12T00:17:17.947Z,0
2017-07-12T00:18:17.973Z,0
2017-07-12T00:19:18.012Z,0
2017-07-12T00:20:18.051Z,0
2017-07-12T00:21:18.080Z,0
2017-07-12T00:22:18.130Z,0
2017-07-12T00:23:18.159Z,0
2017-07-12T00:24:18.209Z,0
2017-07-12T00:25:18.250Z,0
2017-07-12T00:26:18.281Z,0
2017-07-12T00:27:18.315Z,0
2017-07-12T00:28:18.368Z,0
2017-07-12T00:29:18.405Z,0
2017-07-12T00:30:18.446Z,0
2017-07-12T00:31:18.486Z,0
2017-07-12T00:32:18.511Z,0
2017-07-12T00:33:18.567Z,0
2017-07-12T00:34:18.592Z,0
2017-07-12T00:35:18.643Z,0
2017-07-12T00:36:18.668Z,0
2017-07-12T00:37:18.721Z,0
2017-07-12T00:38:18.762Z,0
2017-07-12T00:39:18.788Z,0
2017-07-12T00:40:18.842Z,0
2017-07-12T00:41:18.875Z,0
2017-07-12T00:42:18.915Z,0
2017-07-12T00:43:18.961Z,0
2017-07-12T00:44:18.995Z,0
2017-07-12T00:45:19.038Z,0
2017-07-12T00:46:19.062Z,0
2017-07-12T00:47:19.130Z,0
2017-07-12T00:48:19.141Z,0
2017-07-12T00:49:19.196Z,0
2017-07-12T00:50:19.221Z,0
2017-07-12T00:51:19.260Z,0
2017-07-12T00:52:19.297Z,0
2017-07-12T00:53:19.337Z,0
2017-07-12T00:54:19.390Z,0
2017-07-12T00:55:19.428Z,0
2017-07-12T00:56:19.465Z,0
2017-07-12T00:57:19.501Z,0
2017-07-12T00:58:19.534Z,0
2017-07-12T00:59:19.587Z,0
2017-07-12T01:00:19.624Z,0
2017-07-12T01:01:19.663Z,0
2017-07-12T01:02:19.704Z,0
2017-07-12T01:03:19.742Z,0
2017-07-12T01:04:19.768Z,0
2017-07-12T01:05:19.807Z,0
2017-07-12T01:06:19.860Z,0
2017-07-12T01:07:19.888Z,0
2017-07-12T01:08:20.259Z,0
2017-07-12T01:09:19.980Z,0
2017-07-12T01:10:20.003Z,0
2017-07-12T01:11:20.056Z,0
2017-07-12T01:12:20.088Z,0
2017-07-12T01:13:20.127Z,0
2017-07-12T01:14:20.176Z,0
2017-07-12T01:15:20.209Z,0
2017-07-12T01:16:20.239Z,0
2017-07-12T01:17:20.292Z,0
2017-07-12T01:18:20.327Z,0
2017-07-12T01:19:20.367Z,0
2017-07-12T01:20:20.394Z,0
2017-07-12T01:21:20.432Z,0
2017-07-12T01:22:20.484Z,0
2017-07-12T01:23:20.523Z,0
2017-07-12T01:24:20.550Z,0
2017-07-12T01:25:20.603Z,0
2017-07-12T01:26:20.630Z,0
2017-07-12T01:27:20.672Z,0
2017-07-12T01:28:20.712Z,0
2017-07-12T01:29:20.757Z,0
2017-07-12T01:30:20.784Z,0
2017-07-12T01:31:21.155Z,0
2017-07-12T01:32:20.862Z,0
2017-07-12T01:33:20.913Z,0
2017-07-12T01:34:20.953Z,0
2017-07-12T01:35:20.994Z,0
2017-07-12T01:36:21.018Z,0
2017-07-12T01:37:21.057Z,0
2017-07-12T01:38:21.116Z,0
2017-07-12T01:39:21.136Z,0
2017-07-12T01:40:21.190Z,0
2017-07-12T01:41:21.260Z,0
2017-07-12T01:42:21.264Z,0
2017-07-12T01:43:21.297Z,0
2017-07-12T01:44:21.653Z,0
2017-07-12T01:45:21.381Z,0
2017-07-12T01:46:21.408Z,0
2017-07-12T01:47:21.461Z,0
2017-07-12T01:48:21.487Z,0
2017-07-12T01:49:21.539Z,0
2017-07-12T01:50:21.577Z,0
2017-07-12T01:51:21.616Z,0
2017-07-12T01:52:21.644Z,0
2017-07-12T01:53:21.695Z,0
2017-07-12T01:54:21.722Z,0
2017-07-12T01:55:21.772Z,0
2017-07-12T01:56:21.800Z,0
2017-07-12T01:57:21.851Z,0
2017-07-12T01:58:21.885Z,0
2017-07-12T01:59:21.917Z,0
2017-07-12T02:00:21.971Z,0
2017-07-12T02:01:22.045Z,0
2017-07-12T02:02:22.046Z,0
2017-07-12T02:03:22.085Z,0
2017-07-12T02:04:22.109Z,0
2017-07-12T02:05:22.149Z,0
2017-07-12T02:06:22.202Z,0
2017-07-12T02:07:22.229Z,0
2017-07-12T02:08:22.282Z,0
2017-07-12T02:09:22.320Z,0
2017-07-12T02:10:22.666Z,0
2017-07-12T02:11:22.383Z,0
2017-07-12T02:12:22.438Z,0
2017-07-12T02:13:22.475Z,0
2017-07-12T02:14:22.574Z,0
2017-07-12T02:15:22.555Z,0
2017-07-12T02:16:22.583Z,0
2017-07-12T02:17:22.853Z,0
2017-07-12T02:18:22.657Z,0
2017-07-12T02:19:22.709Z,0
2017-07-12T02:20:22.735Z,0
2017-07-12T02:21:23.103Z,0
2017-07-12T02:22:22.827Z,0
2017-07-12T02:23:22.861Z,0
2017-07-12T02:24:22.891Z,0
2017-07-12T02:25:22.944Z,0
2017-07-12T02:26:22.969Z,0
2017-07-12T02:27:23.009Z,0
2017-07-12T02:28:23.060Z,0
2017-07-12T02:29:23.101Z,0
2017-07-12T02:30:23.136Z,0
2017-07-12T02:31:23.188Z,0
2017-07-12T02:32:23.205Z,0
2017-07-12T02:33:23.253Z,0
2017-07-12T02:34:23.293Z,0
2017-07-12T02:35:23.333Z,0
2017-07-12T02:36:23.368Z,0
2017-07-12T02:37:23.397Z,0
2017-07-12T02:38:23.452Z,0
2017-07-12T02:39:23.474Z,0
2017-07-12T02:40:23.528Z,0
2017-07-12T02:41:23.568Z,0
2017-07-12T02:42:23.596Z,0
2017-07-12T02:43:23.643Z,0
2017-07-12T02:44:23.676Z,0
2017-07-12T02:45:23.710Z,0
2017-07-12T02:46:23.749Z,0
2017-07-12T02:47:23.798Z,0
2017-07-12T02:48:23.837Z,0
2017-07-12T02:49:23.866Z,0
2017-07-12T02:50:23.915Z,0
2017-07-12T02:51:23.949Z,0
2017-07-12T02:52:23.982Z,0
2017-07-12T02:53:24.033Z,0
2017-07-12T02:54:24.061Z,0
2017-07-12T02:55:24.112Z,0
2017-07-12T02:56:24.147Z,0
2017-07-12T02:57:24.177Z,0
2017-07-12T02:58:24.229Z,0
2017-07-12T02:59:24.266Z,0
2017-07-12T03:00:24.299Z,0
2017-07-12T03:01:24.343Z,5
2017-07-12T03:02:24.382Z,5
2017-07-12T03:03:24.421Z,5
2017-07-12T03:04:24.456Z,5
2017-07-12T03:05:24.498Z,5
2017-07-12T03:06:24.525Z,5
2017-07-12T03:07:24.578Z,5
2017-07-12T03:08:24.606Z,5
2017-07-12T03:09:24.655Z,5
2017-07-12T03:10:24.693Z,10
2017-07-12T03:11:24.717Z,10
2017-07-12T03:12:24.772Z,10
2017-07-12T03:13:24.811Z,10
2017-07-12T03:14:24.853Z,10
2017-07-12T03:15:24.888Z,10
2017-07-12T03:16:24.913Z,15
2017-07-12T03:17:24.966Z,15
2017-07-12T03:18:25.003Z,15
2017-07-12T03:19:25.029Z,15
2017-07-12T03:20:25.070Z,20
2017-07-12T03:21:25.121Z,20
2017-07-12T03:22:25.146Z,20
2017-07-12T03:23:25.200Z,25
2017-07-12T03:24:25.233Z,25
2017-07-12T03:25:25.270Z,25
2017-07-12T03:26:25.313Z,30
2017-07-12T03:27:25.357Z,30
2017-07-12T03:28:25.380Z,30
2017-07-12T03:29:25.432Z,35
2017-07-12T03:30:25.465Z,30
2017-07-12T03:31:25.498Z,35
2017-07-12T03:32:25.539Z,40
2017-07-12T03:33:25.575Z,60
2017-07-12T03:34:25.616Z,60
2017-07-12T03:35:25.669Z,65
2017-07-12T03:36:25.692Z,70
2017-07-12T03:37:25.815Z,75
2017-07-12T03:38:25.770Z,80
2017-07-12T03:39:25.818Z,85
2017-07-12T03:40:25.858Z,90
2017-07-12T03:41:25.900Z,95
2017-07-12T03:42:25.938Z,95
2017-07-12T03:43:26.100Z,100
2017-07-12T03:44:26.019Z,100
2017-07-12T03:45:26.048Z,105
2017-07-12T03:46:26.087Z,110
2017-07-12T03:47:26.140Z,115
2017-07-12T03:48:26.170Z,105
2017-07-12T03:49:26.220Z,105
2017-07-12T03:50:26.245Z,125
2017-07-12T03:51:26.299Z,150
2017-07-12T03:52:26.660Z,155
2017-07-12T03:53:26.376Z,165
2017-07-12T03:54:26.420Z,175
2017-07-12T03:55:26.450Z,135
2017-07-12T03:56:26.817Z,70
2017-07-12T03:57:26.542Z,65
2017-07-12T03:58:26.584Z,65
2017-07-12T03:59:26.624Z,65
2017-07-12T04:00:26.668Z,65
2017-07-12T04:01:26.706Z,65
2017-07-12T04:02:26.750Z,70
2017-07-12T04:03:26.786Z,65
2017-07-12T04:04:26.820Z,65
2017-07-12T04:05:26.993Z,65
2017-07-12T04:06:26.910Z,70
2017-07-12T04:07:26.941Z,110
2017-07-12T04:08:26.993Z,75
2017-07-12T04:09:27.023Z,70
2017-07-12T04:10:27.072Z,80
2017-07-12T04:11:27.102Z,85
2017-07-12T04:12:27.155Z,100
2017-07-12T04:13:27.196Z,100
2017-07-12T04:14:27.234Z,125
2017-07-12T04:15:27.262Z,115
2017-07-12T04:16:27.305Z,125
2017-07-12T04:17:27.346Z,130
2017-07-12T04:18:27.399Z,85
2017-07-12T04:19:27.436Z,80
2017-07-12T04:20:27.475Z,75
2017-07-12T04:21:27.828Z,75
2017-07-12T04:22:27.553Z,75
2017-07-12T04:23:27.582Z,70
2017-07-12T04:24:27.952Z,70
2017-07-12T04:25:27.664Z,70
2017-07-12T04:26:27.717Z,70
2017-07-12T04:27:27.748Z,70
2017-07-12T04:28:27.794Z,65
2017-07-12T04:29:27.838Z,65
2017-07-12T04:30:27.863Z,65
2017-07-12T04:31:27.937Z,65
2017-07-12T04:32:27.961Z,65
2017-07-12T04:33:27.996Z,70
2017-07-12T04:34:28.041Z,70
2017-07-12T04:35:28.075Z,75
2017-07-12T04:36:28.115Z,75
2017-07-12T04:37:28.144Z,80
2017-07-12T04:38:28.197Z,85
2017-07-12T04:39:28.222Z,90
2017-07-12T04:40:28.274Z,95
2017-07-12T04:41:28.314Z,100
2017-07-12T04:42:28.340Z,105
2017-07-12T04:43:28.712Z,105
2017-07-12T04:44:28.435Z,110
2017-07-12T04:45:28.466Z,110
2017-07-12T04:46:28.513Z,110
2017-07-12T04:47:28.558Z,110
2017-07-12T04:48:28.581Z,105
2017-07-12T04:49:28.637Z,110
2017-07-12T04:50:28.661Z,110
2017-07-12T04:51:28.703Z,115
2017-07-12T04:52:28.755Z,120
2017-07-12T04:53:28.783Z,130
2017-07-12T04:54:28.835Z,135
2017-07-12T04:55:28.873Z,130
2017-07-12T04:56:28.902Z,120
2017-07-12T04:57:28.954Z,110
2017-07-12T04:58:29.202Z,100
2017-07-12T04:59:29.021Z,100
2017-07-12T05:00:29.071Z,95
2017-07-12T05:01:29.111Z,90
2017-07-12T05:02:29.153Z,85
2017-07-12T05:03:29.184Z,75
2017-07-12T05:04:29.235Z,70
2017-07-12T05:05:29.586Z,60
2017-07-12T05:06:29.315Z,55
2017-07-12T05:07:29.338Z,50
2017-07-12T05:08:29.393Z,50
2017-07-12T05:09:29.433Z,50
2017-07-12T05:10:29.459Z,50
2017-07-12T05:11:29.513Z,55
2017-07-12T05:12:29.555Z,65
2017-07-12T05:13:29.580Z,70
2017-07-12T05:14:29.651Z,70
2017-07-12T05:15:29.673Z,75
2017-07-12T05:16:29.713Z,80
2017-07-12T05:17:29.754Z,80
2017-07-12T05:18:29.785Z,85
2017-07-12T05:19:29.831Z,90
2017-07-12T05:20:29.860Z,100
2017-07-12T05:21:29.900Z,105
2017-07-12T05:22:29.940Z,115
2017-07-12T05:23:29.979Z,115
2017-07-12T05:24:30.033Z,110
2017-07-12T05:25:30.060Z,105
2017-07-12T05:26:30.109Z,105
2017-07-12T05:27:30.151Z,110
2017-07-12T05:28:30.180Z,115
2017-07-12T05:29:30.230Z,120
2017-07-12T05:30:30.258Z,115
2017-07-12T05:31:30.298Z,110
2017-07-12T05:32:30.339Z,115
2017-07-12T05:33:30.384Z,125
2017-07-12T05:34:30.601Z,140
2017-07-12T05:35:30.460Z,155
2017-07-12T05:36:30.502Z,175
2017-07-12T05:37:31.656Z,185
2017-07-12T05:38:30.592Z,200
2017-07-12T05:39:31.507Z,205
2017-07-12T05:40:30.666Z,205
2017-07-12T05:41:31.161Z,200
2017-07-12T05:42:30.739Z,185
2017-07-12T05:43:30.793Z,180
2017-07-12T05:44:30.832Z,180
2017-07-12T05:45:30.859Z,180
2017-07-12T05:46:32.447Z,185
2017-07-12T05:47:30.956Z,195
2017-07-12T05:48:30.997Z,205
2017-07-12T05:49:31.033Z,220
2017-07-12T05:50:31.063Z,230
2017-07-12T05:51:31.119Z,230
2017-07-12T05:52:31.149Z,210
2017-07-12T05:53:31.197Z,185
2017-07-12T05:54:31.234Z,165
2017-07-12T05:55:31.280Z,150
2017-07-12T05:56:31.308Z,150
2017-07-12T05:57:31.363Z,155
2017-07-12T05:58:31.399Z,140
2017-07-12T05:59:31.440Z,130
2017-07-12T06:00:31.484Z,130
2017-07-12T06:01:31.513Z,145
2017-07-12T06:02:31.561Z,160
2017-07-12T06:03:31.607Z,170
2017-07-12T06:04:31.753Z,170
2017-07-12T06:05:31.675Z,150
2017-07-12T06:06:31.726Z,125
2017-07-12T06:07:31.751Z,105
2017-07-12T06:08:31.809Z,85
2017-07-12T06:09:31.837Z,75
2017-07-12T06:10:31.878Z,70
2017-07-12T06:11:31.927Z,70
2017-07-12T06:12:31.957Z,75
2017-07-12T06:13:32.012Z,70
2017-07-12T06:14:32.085Z,70
2017-07-12T06:15:32.091Z,80
2017-07-12T06:16:32.300Z,85
2017-07-12T06:17:32.177Z,85
2017-07-12T06:18:32.211Z,80
2017-07-12T06:19:32.278Z,75
2017-07-12T06:20:32.279Z,80
2017-07-12T06:21:32.335Z,80
2017-07-12T06:22:32.360Z,80
2017-07-12T06:23:32.413Z,80
2017-07-12T06:24:32.457Z,75
2017-07-12T06:25:32.493Z,80
2017-07-12T06:26:33.104Z,80
2017-07-12T06:27:32.734Z,85
2017-07-12T06:28:32.611Z,90
2017-07-12T06:29:32.657Z,90
2017-07-12T06:30:32.684Z,90
2017-07-12T06:31:32.773Z,90
2017-07-12T06:32:32.775Z,85
2017-07-12T06:33:32.819Z,85
2017-07-12T06:34:32.860Z,85
2017-07-12T06:35:32.888Z,80
2017-07-12T06:36:32.937Z,80
2017-07-12T06:37:32.978Z,75
2017-07-12T06:38:33.005Z,75
2017-07-12T06:39:33.057Z,75
2017-07-12T06:40:33.086Z,70
2017-07-12T06:41:34.482Z,65
2017-07-12T06:42:33.166Z,65
2017-07-12T06:43:33.206Z,65
2017-07-12T06:44:33.265Z,70
2017-07-12T06:45:33.287Z,80
2017-07-12T06:46:33.339Z,95
2017-07-12T06:47:33.379Z,110
2017-07-12T06:48:33.419Z,115
2017-07-12T06:49:33.451Z,115
2017-07-12T06:50:33.488Z,115
2017-07-12T06:51:33.539Z,120
2017-07-12T06:52:33.568Z,115
2017-07-12T06:53:33.609Z,115
2017-07-12T06:54:33.651Z,110
2017-07-12T06:55:33.690Z,105
2017-07-12T06:56:33.730Z,105
2017-07-12T06:57:33.783Z,110
2017-07-12T06:58:33.881Z,115
2017-07-12T06:59:33.854Z,130
2017-07-12T07:00:33.905Z,140
2017-07-12T07:01:33.942Z,150
2017-07-12T07:02:33.974Z,155
2017-07-12T07:03:34.011Z,155
2017-07-12T07:04:34.653Z,150
2017-07-12T07:05:34.106Z,150
2017-07-12T07:06:34.150Z,160
2017-07-12T07:07:34.190Z,175
2017-07-12T07:08:34.231Z,180
2017-07-12T07:09:34.257Z,180
2017-07-12T07:10:34.876Z,175
2017-07-12T07:11:34.353Z,165
2017-07-12T07:12:34.386Z,160
2017-07-12T07:13:34.461Z,155
2017-07-12T07:14:34.478Z,145
2017-07-12T07:15:34.501Z,125
2017-07-12T07:16:34.558Z,115
2017-07-12T07:17:34.596Z,110
2017-07-12T07:18:34.623Z,115
2017-07-12T07:19:34.664Z,125
2017-07-12T07:20:34.722Z,130
2017-07-12T07:21:34.764Z,140
2017-07-12T07:22:34.859Z,145
2017-07-12T07:23:34.827Z,145
2017-07-12T07:24:35.203Z,145
2017-07-12T07:25:34.918Z,150
2017-07-12T07:26:34.950Z,150
2017-07-12T07:27:35.005Z,155
2017-07-12T07:28:35.053Z,160
2017-07-12T07:29:35.073Z,165
2017-07-12T07:30:35.124Z,165
2017-07-12T07:31:35.156Z,165
2017-07-12T07:32:35.206Z,165
2017-07-12T07:33:35.236Z,165
2017-07-12T07:34:35.286Z,165
2017-07-12T07:35:35.329Z,160
2017-07-12T07:36:35.424Z,160
2017-07-12T07:37:35.401Z,170
2017-07-12T07:38:35.444Z,175
2017-07-12T07:39:35.531Z,185
2017-07-12T07:40:35.538Z,195
2017-07-12T07:41:35.877Z,200
2017-07-12T07:42:35.603Z,210
2017-07-12T07:43:35.683Z,205
2017-07-12T07:44:35.685Z,210
2017-07-12T07:45:36.077Z,215
2017-07-12T07:46:35.890Z,225
2017-07-12T07:47:35.811Z,225
2017-07-12T07:48:35.851Z,235
2017-07-12T07:49:35.974Z,245
2017-07-12T07:50:35.947Z,255
2017-07-12T07:51:35.986Z,270
2017-07-12T07:52:36.020Z,285
2017-07-12T07:53:36.425Z,290
2017-07-12T07:54:36.100Z,295
2017-07-12T07:55:36.157Z,290
2017-07-12T07:56:36.353Z,290
2017-07-12T07:57:36.540Z,290
2017-07-12T07:58:36.265Z,295
2017-07-12T07:59:36.308Z,305
2017-07-12T08:00:36.353Z,315
2017-07-12T08:01:36.391Z,320
2017-07-12T08:02:36.433Z,315
2017-07-12T08:03:36.495Z,300
2017-07-12T08:04:36.528Z,285
2017-07-12T08:05:36.590Z,280
2017-07-12T08:06:36.606Z,280
2017-07-12T08:07:36.643Z,290
2017-07-12T08:08:36.697Z,295
2017-07-12T08:09:36.724Z,310
2017-07-12T08:10:36.778Z,320
2017-07-12T08:11:36.807Z,320
2017-07-12T08:12:36.861Z,330
2017-07-12T08:13:36.892Z,345
2017-07-12T08:14:36.934Z,375
2017-07-12T08:15:36.990Z,400
2017-07-12T08:16:37.020Z,445
2017-07-12T08:17:37.071Z,485
2017-07-12T08:18:37.114Z,545
2017-07-12T08:19:37.145Z,620
2017-07-12T08:20:37.205Z,685
2017-07-12T08:21:37.245Z,790
2017-07-12T08:22:37.284Z,1175
2017-07-12T08:23:37.328Z,1060
2017-07-12T08:24:37.359Z,1060
2017-07-12T08:25:37.417Z,940
2017-07-12T08:26:37.446Z,1010
2017-07-12T08:27:37.834Z,880
2017-07-12T08:28:37.538Z,950
2017-07-12T08:29:37.593Z,845
2017-07-12T08:30:37.632Z,815
2017-07-12T08:31:37.680Z,710
2017-07-12T08:32:38.032Z,620
2017-07-12T08:33:37.771Z,540
2017-07-12T08:34:37.813Z,490
2017-07-12T08:35:37.858Z,460
2017-07-12T08:36:37.905Z,440
2017-07-12T08:37:37.948Z,445
2017-07-12T08:38:37.981Z,440
2017-07-12T08:39:38.042Z,430
2017-07-12T08:40:38.083Z,420
2017-07-12T08:41:38.115Z,410
2017-07-12T08:42:38.174Z,405
2017-07-12T08:43:38.202Z,415
2017-07-12T08:44:38.262Z,435
2017-07-12T08:45:38.297Z,460
2017-07-12T08:46:38.349Z,475
2017-07-12T08:47:38.391Z,505
2017-07-12T08:48:38.435Z,505
2017-07-12T08:49:38.467Z,520
2017-07-12T08:50:38.527Z,555
2017-07-12T08:51:38.571Z,620
2017-07-12T08:52:38.606Z,805
2017-07-12T08:53:38.666Z,1195
2017-07-12T08:54:38.689Z,1235
2017-07-12T08:55:38.751Z,1240
2017-07-12T08:56:38.780Z,2095
2017-07-12T08:57:38.837Z,1145
2017-07-12T08:58:38.872Z,940
2017-07-12T08:59:38.916Z,765
2017-07-12T09:00:38.962Z,705
2017-07-12T09:01:39.028Z,700
2017-07-12T09:02:39.067Z,755
2017-07-12T09:03:39.116Z,670
2017-07-12T09:04:39.158Z,605
2017-07-12T09:05:39.202Z,595
2017-07-12T09:06:39.248Z,590
2017-07-12T09:07:39.294Z,590
2017-07-12T09:08:39.340Z,585
2017-07-12T09:09:39.390Z,595
2017-07-12T09:10:39.434Z,620
2017-07-12T09:11:39.464Z,645
2017-07-12T09:12:39.525Z,670
2017-07-12T09:13:39.570Z,635
2017-07-12T09:14:39.603Z,615
2017-07-12T09:15:39.648Z,605
2017-07-12T09:16:39.693Z,595
2017-07-12T09:17:39.751Z,610
2017-07-12T09:18:39.785Z,645
2017-07-12T09:19:39.832Z,725
2017-07-12T09:20:39.890Z,800
2017-07-12T09:21:39.921Z,815
2017-07-12T09:22:39.967Z,855
2017-07-12T09:23:40.020Z,1230
2017-07-12T09:33:40.808Z,980
2017-07-12T09:34:40.519Z,1010
2017-07-12T09:35:40.586Z,1180
2017-07-12T09:36:40.613Z,1230
2017-07-12T09:37:40.668Z,900
2017-07-12T09:38:41.035Z,685
2017-07-12T09:39:40.765Z,615
2017-07-12T09:40:40.810Z,550
2017-07-12T09:41:40.845Z,530
2017-07-12T09:42:40.905Z,520
2017-07-12T09:43:40.936Z,535
2017-07-12T09:44:40.997Z,535
2017-07-12T09:45:41.044Z,525
2017-07-12T09:46:41.075Z,525
2017-07-12T09:47:41.453Z,545
2017-07-12T09:48:41.171Z,560
2017-07-12T09:49:41.214Z,575
2017-07-12T09:50:41.273Z,690
2017-07-12T09:51:41.310Z,1130
2017-07-12T09:52:41.367Z,860
2017-07-12T09:53:41.409Z,760
2017-07-12T09:54:41.461Z,640
2017-07-12T09:55:41.809Z,575
2017-07-12T09:56:41.552Z,670
2017-07-12T09:57:41.581Z,535
2017-07-12T09:58:41.639Z,475
2017-07-12T09:59:41.676Z,465
2017-07-12T10:00:41.721Z,470
2017-07-12T10:01:41.871Z,470
2017-07-12T10:02:41.825Z,490
2017-07-12T10:03:41.868Z,680
2017-07-12T10:04:41.933Z,1035
2017-07-12T10:05:41.965Z,685
2017-07-12T10:06:41.995Z,760
2017-07-12T10:07:42.062Z,675
2017-07-12T10:08:42.100Z,650
2017-07-12T10:09:42.789Z,605
2017-07-12T10:10:42.200Z,585
2017-07-12T10:11:42.244Z,550
2017-07-12T10:12:42.286Z,515
2017-07-12T10:13:42.317Z,490
2017-07-12T10:14:42.368Z,455
2017-07-12T10:15:42.408Z,430
2017-07-12T10:16:42.454Z,410
2017-07-12T10:17:42.515Z,395
2017-07-12T10:18:42.552Z,380
2017-07-12T10:19:42.592Z,375
2017-07-12T10:20:42.647Z,385
2017-07-12T10:21:42.683Z,420
2017-07-12T10:22:42.727Z,460
2017-07-12T10:23:42.780Z,430
2017-07-12T10:24:42.840Z,390
2017-07-12T10:25:42.895Z,330
2017-07-12T10:26:42.918Z,280
2017-07-12T10:27:43.094Z,235
2017-07-12T10:28:43.018Z,195
2017-07-12T10:29:43.056Z,165
2017-07-12T10:30:43.096Z,155
2017-07-12T10:31:43.143Z,150
2017-07-12T10:32:43.198Z,150
2017-07-12T10:33:43.538Z,180
2017-07-12T10:34:43.278Z,275
2017-07-12T10:35:43.321Z,420
2017-07-12T10:36:43.670Z,570
2017-07-12T10:37:43.396Z,615
2017-07-12T10:38:43.441Z,700
2017-07-12T10:39:43.489Z,755
2017-07-12T10:40:43.542Z,715
2017-07-12T10:41:43.574Z,975
2017-07-12T10:42:43.631Z,945
2017-07-12T10:43:43.666Z,735
2017-07-12T10:44:43.719Z,655
2017-07-12T10:45:43.765Z,610
2017-07-12T10:46:43.810Z,580
2017-07-12T10:47:43.845Z,550
2017-07-12T10:48:43.901Z,510
2017-07-12T10:49:43.947Z,460
2017-07-12T10:50:43.979Z,420
2017-07-12T10:51:44.033Z,370
2017-07-12T10:52:44.083Z,325
2017-07-12T10:53:44.115Z,285
2017-07-12T10:54:44.167Z,260
2017-07-12T10:55:44.217Z,275
2017-07-12T10:56:44.263Z,320
2017-07-12T10:57:44.308Z,340
2017-07-12T10:58:44.353Z,315
2017-07-12T10:59:44.385Z,300
2017-07-12T11:00:44.442Z,290
2017-07-12T11:01:44.474Z,295
2017-07-12T11:02:44.533Z,305
2017-07-12T11:03:44.578Z,305
2017-07-12T11:04:44.610Z,290
2017-07-12T11:05:44.670Z,270
2017-07-12T11:06:44.698Z,245
2017-07-12T11:07:44.760Z,225
2017-07-12T11:08:45.024Z,200
2017-07-12T11:09:44.845Z,170
2017-07-12T11:10:44.888Z,150
2017-07-12T11:11:44.921Z,155
2017-07-12T11:12:44.976Z,160
2017-07-12T11:13:45.009Z,165
2017-07-12T11:14:45.066Z,145
2017-07-12T11:15:45.106Z,125
2017-07-12T11:16:45.146Z,110
2017-07-12T11:17:45.196Z,95
2017-07-12T11:18:45.229Z,85
2017-07-12T11:19:45.271Z,90
2017-07-12T11:20:45.327Z,100
2017-07-12T11:21:45.358Z,120
2017-07-12T11:22:45.413Z,135
2017-07-12T11:23:45.445Z,145
2017-07-12T11:24:45.497Z,145
2017-07-12T11:25:45.542Z,140
2017-07-12T11:26:45.589Z,130
2017-07-12T11:27:45.620Z,125
2017-07-12T11:28:45.671Z,125
2017-07-12T11:29:45.714Z,130
2017-07-12T11:30:45.758Z,135
2017-07-12T11:31:45.789Z,140
2017-07-12T11:32:45.842Z,145
2017-07-12T11:33:45.880Z,145
2017-07-12T11:34:45.927Z,140
2017-07-12T11:35:45.959Z,135
2017-07-12T11:36:46.014Z,130
2017-07-12T11:37:46.073Z,120
2017-07-12T11:38:46.089Z,110
2017-07-12T11:39:46.142Z,105
2017-07-12T11:40:46.177Z,110
2017-07-12T11:41:46.216Z,115
2017-07-12T11:42:46.274Z,125
2017-07-12T11:43:46.321Z,125
2017-07-12T11:44:46.343Z,120
2017-07-12T11:45:46.401Z,115
2017-07-12T11:46:46.431Z,110
2017-07-12T11:47:46.473Z,110
2017-07-12T11:48:46.530Z,95
2017-07-12T11:49:46.559Z,85
2017-07-12T11:50:46.614Z,80
2017-07-12T11:51:46.641Z,80
2017-07-12T11:52:46.695Z,90
2017-07-12T11:53:46.726Z,100
2017-07-12T11:54:46.792Z,105
2017-07-12T11:55:46.817Z,100
2017-07-12T11:56:46.859Z,100
2017-07-12T11:57:46.914Z,100
2017-07-12T11:58:46.953Z,105
2017-07-12T11:59:46.992Z,120
2017-07-12T12:00:47.024Z,125
2017-07-12T12:01:47.082Z,135
2017-07-12T12:02:47.119Z,135
2017-07-12T12:03:47.176Z,140
2017-07-12T12:04:47.205Z,135
2017-07-12T12:05:47.250Z,125
2017-07-12T12:06:47.276Z,110
2017-07-12T12:07:47.338Z,95
2017-07-12T12:08:47.375Z,85
2017-07-12T12:09:47.403Z,85
2017-07-12T12:10:47.460Z,85
2017-07-12T12:11:47.496Z,85
2017-07-12T12:12:47.528Z,85
2017-07-12T12:13:47.586Z,90
2017-07-12T12:14:47.616Z,95
2017-07-12T12:15:47.670Z,95
2017-07-12T12:16:47.715Z,95
2017-07-12T12:17:47.740Z,100
2017-07-12T12:18:47.793Z,100
2017-07-12T12:19:47.836Z,100
2017-07-12T12:20:47.865Z,95
2017-07-12T12:21:47.922Z,90
2017-07-12T12:22:47.952Z,85
2017-07-12T12:23:47.988Z,90
2017-07-12T12:24:48.049Z,90
2017-07-12T12:25:48.079Z,90
2017-07-12T12:26:48.123Z,85
2017-07-12T12:27:48.171Z,85
2017-07-12T12:28:48.204Z,75
2017-07-12T12:29:48.259Z,70
2017-07-12T12:30:48.285Z,70
2017-07-12T12:31:48.343Z,70
2017-07-12T12:32:48.367Z,65
2017-07-12T12:33:48.730Z,65
2017-07-12T12:34:48.463Z,65
2017-07-12T12:35:48.534Z,70
2017-07-12T12:36:48.549Z,75
2017-07-12T12:37:48.572Z,80
2017-07-12T12:38:48.630Z,85
2017-07-12T12:39:48.656Z,100
2017-07-12T12:40:48.712Z,110
2017-07-12T12:41:48.760Z,110
2017-07-12T12:42:48.792Z,115
2017-07-12T12:43:48.838Z,120
2017-07-12T12:44:48.866Z,110
2017-07-12T12:45:48.921Z,100
2017-07-12T12:46:48.950Z,95
2017-07-12T12:47:49.005Z,85
2017-07-12T12:48:49.030Z,75
2017-07-12T12:49:49.083Z,65
2017-07-12T12:50:49.112Z,60
2017-07-12T12:51:49.473Z,55
2017-07-12T12:52:49.214Z,40
2017-07-12T12:53:49.239Z,35
2017-07-12T12:54:49.293Z,35
2017-07-12T12:55:49.318Z,45
2017-07-12T12:56:49.722Z,50
2017-07-12T12:57:49.423Z,55
2017-07-12T12:58:49.456Z,60
2017-07-12T12:59:49.496Z,65
2017-07-12T13:00:49.538Z,70
2017-07-12T13:01:50.193Z,75
2017-07-12T13:02:49.618Z,75
2017-07-12T13:03:49.660Z,75
2017-07-12T13:04:49.689Z,75
2017-07-12T13:05:49.744Z,85
2017-07-12T13:06:49.791Z,95
2017-07-12T13:07:49.821Z,100
2017-07-12T13:08:49.867Z,100
2017-07-12T13:09:49.894Z,105
2017-07-12T13:10:49.994Z,100
2017-07-12T13:11:49.977Z,100
2017-07-12T13:12:50.019Z,100
2017-07-12T13:13:50.081Z,100
2017-07-12T13:14:50.098Z,100
2017-07-12T13:15:50.152Z,95
2017-07-12T13:16:50.182Z,95
2017-07-12T13:17:50.232Z,90
2017-07-12T13:18:50.278Z,90
2017-07-12T13:19:50.302Z,85
2017-07-12T13:20:50.355Z,80
2017-07-12T13:21:50.399Z,75
2017-07-12T13:22:50.440Z,70
2017-07-12T13:23:50.472Z,65
2017-07-12T13:24:50.519Z,65
2017-07-12T13:25:50.552Z,70
2017-07-12T13:26:50.615Z,75
2017-07-12T13:27:50.638Z,80
2017-07-12T13:28:50.682Z,85
2017-07-12T13:29:50.714Z,85
2017-07-12T13:30:50.762Z,85
2017-07-12T13:31:50.803Z,80
2017-07-12T13:32:50.839Z,75
2017-07-12T13:33:50.878Z,70
2017-07-12T13:34:50.925Z,70
2017-07-12T13:35:50.960Z,70
2017-07-12T13:36:51.009Z,70
2017-07-12T13:37:51.040Z,75
2017-07-12T13:38:51.087Z,80
2017-07-12T13:39:51.122Z,90
2017-07-12T13:40:51.167Z,100
2017-07-12T13:41:51.210Z,110
2017-07-12T13:42:51.252Z,120
2017-07-12T13:43:51.290Z,130
2017-07-12T13:44:51.325Z,130
2017-07-12T13:45:51.374Z,125
2017-07-12T13:46:51.407Z,115
2017-07-12T13:47:51.452Z,100
2017-07-12T13:48:51.490Z,95
2017-07-12T13:49:51.534Z,90
2017-07-12T13:50:51.575Z,105
2017-07-12T13:51:51.617Z,120
2017-07-12T13:52:51.651Z,130
2017-07-12T13:53:51.690Z,140
2017-07-12T13:54:51.737Z,150
2017-07-12T13:55:51.772Z,170
2017-07-12T13:56:51.818Z,200
2017-07-12T13:57:51.860Z,240
2017-07-12T13:58:51.898Z,265
2017-07-12T13:59:51.942Z,275
2017-07-12T14:00:51.973Z,285
2017-07-12T14:01:52.023Z,270
2017-07-12T14:02:52.384Z,245
2017-07-12T14:03:52.105Z,210
2017-07-12T14:04:52.146Z,175
2017-07-12T14:05:52.179Z,145
2017-07-12T14:06:52.228Z,125
2017-07-12T14:07:52.277Z,120
2017-07-12T14:08:52.314Z,115
2017-07-12T14:09:52.343Z,110
2017-07-12T14:10:52.383Z,110
2017-07-12T14:11:52.431Z,110
2017-07-12T14:12:52.465Z,100
2017-07-12T14:13:52.514Z,95
2017-07-12T14:14:52.549Z,100
2017-07-12T14:15:52.597Z,105